Aviation Digital Data Service (ADDS)

Output produced by TAFs form (0630 UTC 22 November 2017)
found at http://www.aviationweather.gov/adds/tafs/
 
METAR text: KPWA 220553Z AUTO 01012KT 10SM CLR 03/M09 A3037 RMK AO2 SLP284 T00281094 10122 20028 401670028 51011
Conditions at: KPWA (OKLA CITY/WILEY , OK, US) observed 0553 UTC 22 November 2017
Temperature: 2.8°C (37°F)
Dewpoint: -9.4°C (15°F) [RH = 40%]
Pressure (altimeter): 30.37 inches Hg (1028.5 mb)
[Sea-level pressure: 1028.4 mb]
Winds: from the N (10 degrees) at 14 MPH (12 knots; 6.2 m/s)
Visibility: 10 or more miles (16+ km)
Ceiling: at least 12,000 feet AGL
Clouds: sky clear below 12,000 feet AGL
Weather: automated observation with no human augmentation;
there may or may not be significant weather present at this time